createdAt,value
2019-02-27T00:01:58.679Z,5.40
2019-02-27T00:04:28.606Z,5.30
2019-02-27T00:06:59.096Z,5.20
2019-02-27T00:09:32.723Z,5.10
2019-02-27T00:12:02.210Z,5.00
2019-02-27T00:14:33.536Z,5.00
2019-02-27T00:17:03.223Z,5.00
2019-02-27T00:19:32.858Z,4.90
2019-02-27T00:22:03.921Z,4.80
2019-02-27T00:24:33.642Z,4.50
2019-02-27T00:27:03.166Z,4.50
2019-02-27T00:29:33.160Z,4.60
2019-02-27T00:32:03.173Z,4.40
2019-02-27T00:34:33.555Z,4.40
2019-02-27T00:37:04.068Z,4.30
2019-02-27T00:39:33.851Z,4.20
2019-02-27T00:42:04.878Z,4.20
2019-02-27T00:44:34.893Z,4.20
2019-02-27T00:47:06.077Z,4.20
2019-02-27T00:49:35.957Z,4.10
2019-02-27T00:52:07.170Z,4.00
2019-02-27T00:54:37.050Z,4.00
2019-02-27T00:57:08.038Z,4.00
2019-02-27T00:59:37.923Z,4.00
2019-02-27T01:02:07.833Z,4.00
2019-02-27T01:04:38.210Z,3.90
2019-02-27T01:07:08.322Z,3.70
2019-02-27T01:09:39.519Z,3.80
2019-02-27T01:12:11.201Z,3.80
2019-02-27T01:14:40.684Z,3.80
2019-02-27T01:17:11.482Z,3.70
2019-02-27T01:19:42.897Z,3.80
2019-02-27T01:22:12.694Z,3.70
2019-02-27T01:24:42.272Z,3.70
2019-02-27T01:27:12.276Z,3.70
2019-02-27T01:29:42.355Z,3.70
2019-02-27T01:32:12.163Z,3.80
2019-02-27T01:34:44.551Z,3.70
2019-02-27T01:37:14.571Z,3.60
2019-02-27T01:39:44.777Z,3.60
2019-02-27T01:42:15.258Z,3.60
2019-02-27T01:44:46.653Z,3.50
2019-02-27T01:47:18.979Z,3.50
2019-02-27T01:49:49.115Z,3.30
2019-02-27T01:52:20.729Z,3.30
2019-02-27T01:54:50.500Z,3.30
2019-02-27T01:57:20.567Z,3.40
2019-02-27T01:59:50.965Z,3.40
2019-02-27T02:02:20.960Z,3.30
2019-02-27T02:04:53.114Z,3.30
2019-02-27T02:07:23.463Z,3.30
2019-02-27T02:09:55.084Z,3.30
2019-02-27T02:12:25.998Z,3.30
2019-02-27T02:14:58.823Z,3.30
2019-02-27T02:17:46.568Z,3.20
2019-02-27T02:20:19.517Z,3.30
2019-02-27T02:22:59.048Z,3.30
2019-02-27T02:25:37.879Z,3.30
2019-02-27T02:28:14.695Z,3.30
2019-02-27T02:31:05.325Z,3.10
2019-02-27T02:33:44.535Z,3.20
2019-02-27T02:36:24.804Z,3.20
2019-02-27T02:38:59.920Z,3.20
2019-02-27T02:41:35.533Z,3.00
2019-02-27T02:44:26.295Z,3.00
2019-02-27T02:47:10.995Z,3.00
2019-02-27T02:50:03.254Z,3.00
2019-02-27T02:52:40.970Z,2.90
2019-02-27T02:55:20.657Z,2.70
2019-02-27T02:57:57.848Z,2.60
2019-02-27T03:00:45.619Z,2.70
2019-02-27T03:03:38.948Z,2.50
2019-02-27T03:06:39.099Z,2.20
2019-02-27T03:09:15.009Z,2.10
2019-02-27T03:12:19.769Z,2.30
2019-02-27T03:15:01.532Z,2.50
2019-02-27T03:18:02.501Z,2.50
2019-02-27T03:20:53.231Z,2.60
2019-02-27T03:23:37.926Z,2.50
2019-02-27T03:26:43.664Z,2.60
2019-02-27T03:29:22.201Z,2.60
2019-02-27T03:32:09.838Z,2.70
2019-02-27T03:34:50.882Z,2.70
2019-02-27T03:37:25.447Z,2.70
2019-02-27T03:40:19.281Z,2.70
2019-02-27T03:43:18.831Z,2.60
2019-02-27T03:46:09.419Z,2.50
2019-02-27T03:48:47.999Z,2.40
2019-02-27T03:51:32.950Z,2.50
2019-02-27T03:54:32.797Z,2.50
2019-02-27T03:57:09.711Z,2.50
2019-02-27T03:59:59.071Z,2.40
2019-02-27T04:02:51.052Z,2.40
2019-02-27T04:05:46.026Z,2.40
2019-02-27T04:08:46.343Z,2.30
2019-02-27T04:11:17.014Z,2.40
2019-02-27T04:13:46.514Z,2.50
2019-02-27T04:16:17.295Z,2.50
2019-02-27T04:18:47.006Z,2.60
2019-02-27T04:21:16.478Z,2.70
2019-02-27T04:23:49.030Z,2.70
2019-02-27T04:26:19.432Z,2.60
2019-02-27T04:28:49.095Z,2.50
2019-02-27T04:31:18.571Z,2.70
2019-02-27T04:33:50.873Z,2.70
2019-02-27T04:36:20.336Z,2.60
2019-02-27T04:38:49.838Z,2.60
2019-02-27T04:41:19.312Z,2.60
2019-02-27T04:43:49.319Z,2.50
2019-02-27T04:46:18.921Z,2.40
2019-02-27T04:48:50.123Z,2.30
2019-02-27T04:51:20.890Z,2.00
2019-02-27T04:53:50.390Z,2.00
2019-02-27T04:56:23.252Z,2.10
2019-02-27T04:58:52.191Z,2.10
2019-02-27T05:01:22.862Z,1.90
2019-02-27T05:03:52.468Z,1.90
2019-02-27T05:06:23.138Z,2.00
2019-02-27T05:08:52.643Z,2.00
2019-02-27T05:11:22.106Z,2.10
2019-02-27T05:13:54.119Z,2.10
2019-02-27T05:16:22.654Z,2.10
2019-02-27T05:18:52.161Z,2.10
2019-02-27T05:21:21.635Z,2.00
2019-02-27T05:23:51.159Z,2.10
2019-02-27T05:26:21.830Z,2.10
2019-02-27T05:28:51.329Z,1.90
2019-02-27T05:31:22.310Z,1.70
2019-02-27T05:33:51.792Z,1.90
2019-02-27T05:36:21.324Z,1.90
2019-02-27T05:38:50.774Z,2.10
2019-02-27T05:41:20.202Z,2.10
2019-02-27T05:43:49.682Z,2.00
2019-02-27T05:46:20.404Z,2.00
2019-02-27T05:48:50.899Z,2.10
2019-02-27T05:51:22.206Z,2.00
2019-02-27T05:53:51.716Z,1.90
2019-02-27T05:56:21.222Z,1.90
2019-02-27T05:58:50.715Z,1.90
2019-02-27T06:01:21.530Z,1.90
2019-02-27T06:03:52.252Z,2.00
2019-02-27T06:06:22.081Z,1.90
2019-02-27T06:08:51.538Z,1.90
2019-02-27T06:11:21.060Z,1.80
2019-02-27T06:13:50.467Z,1.80
2019-02-27T06:16:20.052Z,1.80
2019-02-27T06:18:50.472Z,1.80
2019-02-27T06:21:19.985Z,1.50
2019-02-27T06:23:49.459Z,1.70
2019-02-27T06:26:20.363Z,1.90
2019-02-27T06:28:49.849Z,2.20
2019-02-27T06:31:20.822Z,2.40
2019-02-27T06:33:50.294Z,2.50
2019-02-27T06:36:21.011Z,2.50
2019-02-27T06:38:50.419Z,2.80
2019-02-27T06:41:19.926Z,2.90
2019-02-27T06:43:49.409Z,3.00
2019-02-27T06:46:20.062Z,3.00
2019-02-27T06:48:50.134Z,3.00
2019-02-27T06:51:19.648Z,3.30
2019-02-27T06:53:49.136Z,3.70
2019-02-27T06:56:18.751Z,3.90
2019-02-27T06:58:50.122Z,4.10
2019-02-27T07:01:20.688Z,4.20
2019-02-27T07:03:50.295Z,4.30
2019-02-27T07:06:21.652Z,4.60
2019-02-27T07:08:50.925Z,4.80
2019-02-27T07:11:21.706Z,5.00
2019-02-27T07:13:51.225Z,5.00
2019-02-27T07:16:22.938Z,5.20
2019-02-27T07:18:53.226Z,5.20
2019-02-27T07:21:23.907Z,5.30
2019-02-27T07:23:57.594Z,5.80
2019-02-27T07:26:24.523Z,6.10
2019-02-27T07:28:54.038Z,6.30
2019-02-27T07:31:23.524Z,7.00
2019-02-27T07:33:53.035Z,7.60
2019-02-27T07:36:22.507Z,8.30
2019-02-27T07:38:54.350Z,8.40
2019-02-27T07:41:23.232Z,8.70
2019-02-27T07:43:52.738Z,9.40
2019-02-27T07:46:23.522Z,10.80
2019-02-27T07:48:56.454Z,11.50
2019-02-27T07:51:24.243Z,12.10
2019-02-27T07:53:54.468Z,12.50
2019-02-27T07:56:25.341Z,13.40
2019-02-27T07:58:55.263Z,14.00
2019-02-27T08:01:24.740Z,14.30
2019-02-27T08:03:54.661Z,14.60
2019-02-27T08:06:25.538Z,14.80
2019-02-27T08:08:57.134Z,15.00
2019-02-27T08:11:27.443Z,15.00
2019-02-27T08:13:57.357Z,15.60
2019-02-27T08:16:28.147Z,16.20
2019-02-27T08:18:57.767Z,16.40
2019-02-27T08:21:27.350Z,16.30
2019-02-27T08:23:56.963Z,16.20
2019-02-27T08:26:26.450Z,17.10
2019-02-27T08:28:56.566Z,17.40
2019-02-27T08:31:28.245Z,18.00
2019-02-27T08:33:58.591Z,18.40
2019-02-27T08:36:28.574Z,18.20
2019-02-27T08:38:58.461Z,18.30
2019-02-27T08:41:29.201Z,17.70
2019-02-27T08:43:59.474Z,18.30
2019-02-27T08:46:30.595Z,19.20
2019-02-27T08:49:00.178Z,19.30
2019-02-27T08:51:31.178Z,20.20
2019-02-27T08:54:00.664Z,20.90
2019-02-27T08:56:31.830Z,21.20
2019-02-27T08:59:05.102Z,21.20
2019-02-27T09:01:32.459Z,21.50
2019-02-27T09:04:01.955Z,21.70
2019-02-27T09:06:33.097Z,21.50
2019-02-27T09:09:02.789Z,22.30
2019-02-27T09:11:33.783Z,22.80
2019-02-27T09:14:03.268Z,23.10
2019-02-27T09:16:32.988Z,23.40
2019-02-27T09:19:02.481Z,23.10
2019-02-27T09:21:33.310Z,23.20
2019-02-27T09:24:02.776Z,24.10
2019-02-27T09:26:36.079Z,24.50
2019-02-27T09:29:03.606Z,24.70
2019-02-27T09:31:37.749Z,24.60
2019-02-27T09:34:06.305Z,24.80
2019-02-27T09:36:35.858Z,24.60
2019-02-27T09:39:05.978Z,24.80
2019-02-27T09:41:36.971Z,24.90
2019-02-27T09:44:06.451Z,25.30
2019-02-27T09:46:37.267Z,24.70
2019-02-27T09:49:07.795Z,25.40
2019-02-27T09:51:37.471Z,26.20
2019-02-27T09:54:08.170Z,26.00
2019-02-27T09:56:37.972Z,25.90
2019-02-27T09:59:07.450Z,26.60
2019-02-27T10:01:36.937Z,26.80
2019-02-27T10:04:06.454Z,26.60
2019-02-27T10:06:36.043Z,26.20
2019-02-27T10:09:05.706Z,26.80
2019-02-27T10:11:36.731Z,26.40
2019-02-27T10:14:06.251Z,26.60
2019-02-27T10:16:35.832Z,26.70
2019-02-27T10:19:05.454Z,26.70
2019-02-27T10:21:35.039Z,27.00
2019-02-27T10:24:04.990Z,26.90
2019-02-27T10:26:35.138Z,26.90
2019-02-27T10:29:04.650Z,27.20
2019-02-27T10:31:34.236Z,26.90
2019-02-27T10:34:03.752Z,27.50
2019-02-27T10:36:38.168Z,27.40
2019-02-27T10:39:05.903Z,27.40
2019-02-27T10:41:36.861Z,27.40
2019-02-27T10:44:06.474Z,27.30
2019-02-27T10:46:36.162Z,27.70
2019-02-27T10:49:05.975Z,28.00
2019-02-27T10:51:37.162Z,28.10
2019-02-27T10:54:06.686Z,28.10
2019-02-27T10:56:37.706Z,27.90
2019-02-27T10:59:07.215Z,27.50
2019-02-27T11:01:37.369Z,28.00
2019-02-27T11:04:06.977Z,27.90
2019-02-27T11:06:37.731Z,28.30
2019-02-27T11:09:11.232Z,27.40
2019-02-27T11:11:41.911Z,28.10
2019-02-27T11:14:11.424Z,28.30
2019-02-27T11:16:41.199Z,28.60
2019-02-27T11:19:10.699Z,28.20
2019-02-27T11:21:41.981Z,28.10
2019-02-27T11:24:11.487Z,28.20
2019-02-27T11:26:42.775Z,27.80
2019-02-27T11:29:12.487Z,28.00
2019-02-27T11:31:45.462Z,26.90
2019-02-27T11:34:16.102Z,27.50
2019-02-27T11:36:47.202Z,28.30
2019-02-27T11:39:16.811Z,28.50
2019-02-27T11:41:48.509Z,28.30
2019-02-27T11:44:18.969Z,28.30
2019-02-27T11:46:58.481Z,28.40
2019-02-27T11:49:20.889Z,28.20
2019-02-27T11:51:53.239Z,28.10
2019-02-27T11:54:22.858Z,28.00
2019-02-27T11:56:56.119Z,28.20
2019-02-27T11:59:23.531Z,27.90
2019-02-27T12:01:56.160Z,28.20
2019-02-27T12:04:25.720Z,28.80
2019-02-27T12:06:55.230Z,28.80
2019-02-27T12:09:24.710Z,28.90
2019-02-27T12:11:55.695Z,28.10
2019-02-27T12:14:25.162Z,28.20
2019-02-27T12:16:54.675Z,28.30
2019-02-27T12:19:24.156Z,28.10
2019-02-27T12:21:59.295Z,27.80
2019-02-27T12:24:26.159Z,27.90
2019-02-27T12:26:55.667Z,28.10
2019-02-27T12:29:26.513Z,28.00
2019-02-27T12:31:57.760Z,28.60
2019-02-27T12:34:27.239Z,28.20
2019-02-27T12:36:56.752Z,28.10
2019-02-27T12:39:26.615Z,27.70
2019-02-27T12:41:56.418Z,26.80
2019-02-27T12:44:25.897Z,26.90
2019-02-27T12:46:56.699Z,27.40
2019-02-27T12:49:26.284Z,27.10
2019-02-27T12:51:57.078Z,27.10
2019-02-27T12:54:27.422Z,26.90
2019-02-27T12:56:56.962Z,26.90
2019-02-27T12:59:26.435Z,25.80
2019-02-27T13:01:57.343Z,26.00
2019-02-27T13:04:27.012Z,26.40
2019-02-27T13:06:56.616Z,25.90
2019-02-27T13:09:26.687Z,26.10
2019-02-27T13:11:57.590Z,25.70
2019-02-27T13:14:27.063Z,25.20
2019-02-27T13:16:58.275Z,25.30
2019-02-27T13:19:28.448Z,25.20
2019-02-27T13:21:59.650Z,24.50
2019-02-27T13:24:29.118Z,23.50
2019-02-27T13:26:59.427Z,23.10
2019-02-27T13:29:29.203Z,22.80
2019-02-27T13:31:58.914Z,22.70
2019-02-27T13:34:28.587Z,21.60
2019-02-27T13:36:59.792Z,21.10
2019-02-27T13:39:29.674Z,20.20
2019-02-27T13:42:00.651Z,19.80
2019-02-27T13:44:34.438Z,19.50
2019-02-27T13:47:01.968Z,19.20
2019-02-27T13:49:31.839Z,18.90
2019-02-27T13:52:02.651Z,18.80
2019-02-27T13:54:36.800Z,18.70
2019-02-27T13:57:04.953Z,18.50
2019-02-27T13:59:35.949Z,18.30
2019-02-27T14:02:05.536Z,18.10
2019-02-27T14:04:36.747Z,18.00
2019-02-27T14:07:06.419Z,18.00
2019-02-27T14:09:39.126Z,17.80
2019-02-27T14:12:09.512Z,17.90
2019-02-27T14:14:39.719Z,17.60
2019-02-27T14:17:11.374Z,17.50
2019-02-27T14:19:42.104Z,17.20
2019-02-27T14:22:12.380Z,17.30
2019-02-27T14:24:42.184Z,17.40
2019-02-27T14:27:14.598Z,17.40
2019-02-27T14:29:44.687Z,17.30
2019-02-27T14:32:14.660Z,17.10
2019-02-27T14:34:45.273Z,17.00
2019-02-27T14:37:16.593Z,16.90
2019-02-27T14:39:47.343Z,16.70
2019-02-27T14:42:20.540Z,16.80
2019-02-27T14:44:49.638Z,16.50
2019-02-27T14:47:19.211Z,16.30
2019-02-27T14:49:48.923Z,16.30
2019-02-27T14:52:20.111Z,16.30
2019-02-27T14:54:49.715Z,16.00
2019-02-27T14:57:19.383Z,16.00
2019-02-27T14:59:49.294Z,15.80
2019-02-27T15:02:22.056Z,15.90
2019-02-27T15:04:50.694Z,15.80
2019-02-27T15:07:22.169Z,15.60
2019-02-27T15:09:54.798Z,15.70
2019-02-27T15:12:24.466Z,16.00
2019-02-27T15:14:54.446Z,16.00
2019-02-27T15:17:25.526Z,15.90
2019-02-27T15:19:55.230Z,15.80
2019-02-27T15:22:26.212Z,15.80
2019-02-27T15:24:55.887Z,15.60
2019-02-27T15:27:26.768Z,15.60
2019-02-27T15:29:56.270Z,15.70
2019-02-27T15:32:29.388Z,15.70
2019-02-27T15:34:59.054Z,15.60
2019-02-27T15:37:30.032Z,15.60
2019-02-27T15:39:59.702Z,15.30
2019-02-27T15:42:29.417Z,15.30
2019-02-27T15:44:58.985Z,15.20
2019-02-27T15:47:30.452Z,15.30
2019-02-27T15:50:00.506Z,15.50
2019-02-27T15:52:34.142Z,15.40
2019-02-27T15:55:05.197Z,15.30
2019-02-27T15:57:36.171Z,15.30
2019-02-27T16:00:17.787Z,15.10
2019-02-27T16:02:47.650Z,15.10
2019-02-27T16:05:17.266Z,15.10
2019-02-27T16:07:49.460Z,15.00
2019-02-27T16:10:26.984Z,15.00
2019-02-27T16:12:59.835Z,14.90
2019-02-27T16:15:29.299Z,14.80
2019-02-27T16:18:04.312Z,14.80
2019-02-27T16:20:31.994Z,14.70
2019-02-27T16:23:04.499Z,14.50
2019-02-27T16:25:33.624Z,14.40
2019-02-27T16:28:03.634Z,14.50
2019-02-27T16:30:34.558Z,14.40
2019-02-27T16:33:04.281Z,14.20
2019-02-27T16:35:35.227Z,14.10
2019-02-27T16:38:05.327Z,14.00
2019-02-27T16:40:36.288Z,13.70
2019-02-27T16:43:05.782Z,13.40
2019-02-27T16:45:37.830Z,13.30
2019-02-27T16:48:07.548Z,13.10
2019-02-27T16:50:38.490Z,12.90
2019-02-27T16:53:08.602Z,12.60
2019-02-27T16:55:39.600Z,12.60
2019-02-27T16:58:10.093Z,12.60
2019-02-27T17:00:41.162Z,12.30
2019-02-27T17:03:13.413Z,12.10
2019-02-27T17:05:43.132Z,11.90
2019-02-27T17:08:13.686Z,11.70
2019-02-27T17:10:44.630Z,11.60
2019-02-27T17:13:15.637Z,11.40
2019-02-27T17:15:46.566Z,11.20
2019-02-27T17:18:17.489Z,11.10
2019-02-27T17:20:48.471Z,11.00
2019-02-27T17:23:18.006Z,11.00
2019-02-27T17:25:47.782Z,10.90
2019-02-27T17:28:17.503Z,10.90
2019-02-27T17:30:48.386Z,10.70
2019-02-27T17:33:18.095Z,10.60
2019-02-27T17:35:47.879Z,10.50
2019-02-27T17:38:17.499Z,10.40
2019-02-27T17:40:47.383Z,10.40
2019-02-27T17:43:17.199Z,10.20
2019-02-27T17:45:47.002Z,10.20
2019-02-27T17:48:17.306Z,10.30
2019-02-27T17:50:48.270Z,10.10
2019-02-27T17:53:20.329Z,10.00
2019-02-27T17:55:50.710Z,10.10
2019-02-27T17:58:20.575Z,10.30
2019-02-27T18:00:53.298Z,10.50
2019-02-27T18:03:25.007Z,10.40
2019-02-27T18:05:56.417Z,10.20
2019-02-27T18:08:26.790Z,9.90
2019-02-27T18:10:57.874Z,9.90
2019-02-27T18:13:27.802Z,10.10
2019-02-27T18:15:58.691Z,9.90
2019-02-27T18:18:28.346Z,9.80
2019-02-27T18:20:59.461Z,9.80
2019-02-27T18:23:29.776Z,9.80
2019-02-27T18:26:00.664Z,9.90
2019-02-27T18:28:32.936Z,9.70
2019-02-27T18:31:04.550Z,9.50
2019-02-27T18:33:34.966Z,9.50
2019-02-27T18:36:06.170Z,9.40
2019-02-27T18:38:36.391Z,9.40
2019-02-27T18:41:06.342Z,9.40
2019-02-27T18:43:36.999Z,9.30
2019-02-27T18:46:07.879Z,9.20
2019-02-27T18:48:37.813Z,9.20
2019-02-27T18:51:07.421Z,9.00
2019-02-27T18:53:37.410Z,8.90
2019-02-27T18:56:07.029Z,8.80
2019-02-27T18:58:36.713Z,9.00
2019-02-27T19:01:09.829Z,8.90
2019-02-27T19:03:38.711Z,8.70
2019-02-27T19:06:08.423Z,8.60
2019-02-27T19:08:38.197Z,8.40
2019-02-27T19:11:07.818Z,8.30
2019-02-27T19:13:37.398Z,8.30
2019-02-27T19:16:08.307Z,8.30
2019-02-27T19:18:38.451Z,8.20
2019-02-27T19:21:10.727Z,8.20
2019-02-27T19:23:40.899Z,8.20
2019-02-27T19:26:10.503Z,8.30
2019-02-27T19:28:40.588Z,8.60
2019-02-27T19:31:10.100Z,8.20
2019-02-27T19:33:39.783Z,8.00
2019-02-27T19:36:18.632Z,8.00
2019-02-27T19:38:41.425Z,7.90
2019-02-27T19:43:55.819Z,7.80
2019-02-27T19:46:24.323Z,7.90
2019-02-27T19:48:53.998Z,7.90
2019-02-27T19:51:24.903Z,7.90
2019-02-27T19:53:54.458Z,7.80
2019-02-27T19:56:25.358Z,7.70
2019-02-27T19:58:56.432Z,7.90
2019-02-27T20:01:27.582Z,7.90
2019-02-27T20:03:58.230Z,7.70
2019-02-27T20:06:29.120Z,7.50
2019-02-27T20:08:58.716Z,7.50
2019-02-27T20:11:28.230Z,7.60
2019-02-27T20:14:02.331Z,7.70
2019-02-27T20:16:29.343Z,7.70
2019-02-27T20:18:58.939Z,7.70
2019-02-27T20:21:28.607Z,7.40
2019-02-27T20:24:01.408Z,7.40
2019-02-27T20:26:29.795Z,7.30
2019-02-27T20:28:59.379Z,7.30
2019-02-27T20:31:30.658Z,7.20
2019-02-27T20:34:00.600Z,7.00
2019-02-27T20:36:33.160Z,7.00
2019-02-27T20:39:04.490Z,6.90
2019-02-27T20:41:39.525Z,6.90
2019-02-27T20:44:07.438Z,6.80
2019-02-27T20:46:37.350Z,6.90
2019-02-27T20:49:07.209Z,6.90
2019-02-27T20:51:40.094Z,6.80
2019-02-27T20:54:09.463Z,6.70
2019-02-27T20:56:40.672Z,6.70
2019-02-27T20:59:10.623Z,6.80
2019-02-27T21:01:46.622Z,6.80
2019-02-27T21:04:13.011Z,6.80
2019-02-27T21:06:47.260Z,6.80
2019-02-27T21:09:13.985Z,6.90
2019-02-27T21:11:45.117Z,6.90
2019-02-27T21:14:15.026Z,6.90
2019-02-27T21:16:47.243Z,6.90
2019-02-27T21:19:17.309Z,6.90
2019-02-27T21:21:47.935Z,7.00
2019-02-27T21:24:18.499Z,6.80
2019-02-27T21:26:49.744Z,6.70
2019-02-27T21:29:19.292Z,6.90
2019-02-27T21:31:48.964Z,6.80
2019-02-27T21:34:20.048Z,6.90
2019-02-27T21:36:50.952Z,7.10
2019-02-27T21:39:22.590Z,7.20
2019-02-27T21:41:53.091Z,7.20
2019-02-27T21:44:25.731Z,7.10
2019-02-27T21:46:53.910Z,7.10
2019-02-27T21:49:23.432Z,7.10
2019-02-27T21:51:54.221Z,6.90
2019-02-27T21:54:23.735Z,6.90
2019-02-27T21:56:55.079Z,6.90
2019-02-27T21:59:24.359Z,7.00
2019-02-27T22:01:56.295Z,6.90
2019-02-27T22:04:25.389Z,6.90
2019-02-27T22:06:58.432Z,6.90
2019-02-27T22:09:27.689Z,7.00
2019-02-27T22:11:58.140Z,7.10
2019-02-27T22:14:28.371Z,7.30
2019-02-27T22:17:01.610Z,7.40
2019-02-27T22:19:31.176Z,7.50
2019-02-27T22:22:01.957Z,7.70
2019-02-27T22:24:31.767Z,7.80
2019-02-27T22:27:01.251Z,7.70
2019-02-27T22:29:30.967Z,7.70
2019-02-27T22:32:00.446Z,7.80
2019-02-27T22:34:30.058Z,7.80
2019-02-27T22:36:59.577Z,7.60
2019-02-27T22:39:31.707Z,7.20
2019-02-27T22:42:02.067Z,6.90
2019-02-27T22:44:32.375Z,6.70
2019-02-27T22:47:03.062Z,6.50
2019-02-27T22:49:33.078Z,6.30
2019-02-27T22:52:03.962Z,6.20
2019-02-27T22:54:35.989Z,6.10
2019-02-27T22:57:05.891Z,5.90
2019-02-27T22:59:37.428Z,5.90
2019-02-27T23:02:07.945Z,5.90
2019-02-27T23:04:38.534Z,5.90
2019-02-27T23:07:10.052Z,6.00
2019-02-27T23:09:40.363Z,6.00
2019-02-27T23:12:10.458Z,5.90
2019-02-27T23:14:40.849Z,5.80
2019-02-27T23:17:11.930Z,5.70
2019-02-27T23:19:46.059Z,5.60
2019-02-27T23:22:14.207Z,5.50
2019-02-27T23:24:44.641Z,5.40
2019-02-27T23:27:15.516Z,5.40
2019-02-27T23:29:45.239Z,5.20
2019-02-27T23:32:16.121Z,5.20
2019-02-27T23:34:46.051Z,5.20
2019-02-27T23:37:15.738Z,5.30
2019-02-27T23:39:45.453Z,5.40
2019-02-27T23:42:16.438Z,5.30
2019-02-27T23:44:46.763Z,5.10
2019-02-27T23:47:17.748Z,5.10
2019-02-27T23:49:47.536Z,5.00
2019-02-27T23:52:19.354Z,5.10
2019-02-27T23:54:49.972Z,5.10
2019-02-27T23:57:23.648Z,5.20
2019-02-27T23:59:52.908Z,5.10
